Stephens, Missouri
Current Conditions -  °F | °C
As of 4:07 AM on Thursday 29 Jan 2015 (Local Time) from KCOU Reporting Station
Broken Clouds Broken Clouds  
Wind Chill: 35°   Ceiling: 2400
Heat Index: 45°   Visibility: 10mi
Dew Point: 36°   Wind: 30mph
Humidity: 71%   Direction: 310°NW
Pressure: 29.91"   Gusts: 40mph
Location:  39.0235°N, 92.2896°W
Report Text: KCOU 291007Z AUTO 31026G35KT 10SM BKN024 07/02 A2991 RMK AO2 PK WND 32035/1007 PRESRR T00720022
Loading
Personal Weather Stations






























Interactive Weather Map New forecast layout! Learn more

10-Day Weather Forecast

Advertisements
Track Severe Weather on mobile